Time;durP1;ratioP1;P1;durP2;ratioP2;P2;SDS_P1;SDS_P2;PMS_P1;PMS_P2;Temp;Humidity;BMP_temperature;BMP_pressure;BME280_temperature;BME280_humidity;BME280_pressure;Samples;Min_cycle;Max_cycle;Signal;HPM_P1;HPM_P2
2023/05/29 00:02:09;;;;;;;1.40;1.30;;;23.90;80.30;;;;;;5093279;28;20444;-84
2023/05/29 00:04:37;;;;;;;1.33;1.23;;;23.90;80.20;;;;;;5093282;28;20536;-84
2023/05/29 00:07:04;;;;;;;1.60;1.50;;;23.90;80.00;;;;;;5093076;28;20462;-84
2023/05/29 00:09:31;;;;;;;1.43;1.33;;;23.90;79.90;;;;;;5093122;28;20444;-84
2023/05/29 00:12:01;;;;;;;1.60;1.50;;;23.90;79.90;;;;;;5092900;28;20497;-84
2023/05/29 00:14:27;;;;;;;1.20;1.10;;;23.90;79.70;;;;;;5092964;28;20576;-84
2023/05/29 00:16:54;;;;;;;1.23;1.10;;;23.90;79.50;;;;;;5093101;28;20435;-84
2023/05/29 00:19:21;;;;;;;1.50;1.40;;;23.80;79.30;;;;;;5092989;28;20443;-84
2023/05/29 00:21:48;;;;;;;1.10;0.90;;;23.80;79.10;;;;;;5093009;28;20547;-84
2023/05/29 00:24:15;;;;;;;1.30;1.20;;;23.90;79.00;;;;;;5092976;28;20436;-83
2023/05/29 00:26:42;;;;;;;1.30;1.20;;;23.80;78.70;;;;;;5093011;28;20450;-84
2023/05/29 00:29:10;;;;;;;1.50;1.40;;;23.90;78.70;;;;;;5092947;28;20942;-84
2023/05/29 00:31:37;;;;;;;1.20;1.10;;;23.90;78.50;;;;;;5092977;28;20469;-84
2023/05/29 00:34:04;;;;;;;1.40;1.00;;;23.80;78.40;;;;;;5092905;28;20481;-84
2023/05/29 00:36:31;;;;;;;1.30;1.00;;;23.80;78.50;;;;;;5092730;28;20815;-83
2023/05/29 00:38:58;;;;;;;1.27;1.17;;;23.90;78.50;;;;;;5092862;28;20443;-83
2023/05/29 00:41:25;;;;;;;1.60;1.33;;;23.80;78.40;;;;;;5093047;28;20443;-83
2023/05/29 00:43:52;;;;;;;1.30;1.20;;;23.80;78.30;;;;;;5092911;28;20466;-84
2023/05/29 00:46:20;;;;;;;1.10;1.00;;;23.80;78.40;;;;;;5092865;28;20530;-84
2023/05/29 00:48:48;;;;;;;1.30;1.20;;;23.80;78.10;;;;;;5093138;28;20437;-84
2023/05/29 00:51:16;;;;;;;1.20;1.00;;;23.80;78.00;;;;;;5096733;28;20493;-84
2023/05/29 00:53:45;;;;;;;1.20;1.10;;;23.80;78.90;;;;;;5096549;28;20476;-84
2023/05/29 00:56:13;;;;;;;1.20;1.10;;;23.80;78.00;;;;;;5096492;28;20505;-83
2023/05/29 00:58:40;;;;;;;1.30;1.13;;;23.80;77.90;;;;;;5096574;28;21273;-83
2023/05/29 01:01:07;;;;;;;1.40;1.20;;;23.80;77.90;;;;;;5096579;28;20435;-83
2023/05/29 01:03:35;;;;;;;1.30;1.20;;;23.80;77.70;;;;;;5096428;28;20446;-83
2023/05/29 01:06:03;;;;;;;1.10;0.90;;;23.80;77.60;;;;;;5096467;28;20440;-83
2023/05/29 01:08:30;;;;;;;1.50;1.40;;;23.80;77.50;;;;;;5096143;28;20794;-83
2023/05/29 01:11:11;;;;;;;1.20;1.00;;;23.80;77.30;;;;;;5096297;28;20527;-83
2023/05/29 01:13:40;;;;;;;1.37;1.13;;;23.80;77.30;;;;;;5096167;28;20840;-83
2023/05/29 01:16:13;;;;;;;1.27;1.10;;;23.80;77.20;;;;;;5096172;28;20548;-84
2023/05/29 01:18:48;;;;;;;1.20;1.10;;;23.80;76.90;;;;;;5096201;28;20529;-83
2023/05/29 01:21:23;;;;;;;1.20;1.03;;;23.80;77.10;;;;;;5096087;28;20442;-83
2023/05/29 01:24:04;;;;;;;1.20;1.10;;;23.80;77.10;;;;;;5096152;28;20445;-83
2023/05/29 01:26:46;;;;;;;1.13;1.00;;;23.80;77.00;;;;;;5095986;28;20484;-83
2023/05/29 01:29:16;;;;;;;1.50;1.30;;;23.80;77.10;;;;;;5096013;28;20446;-83
2023/05/29 01:31:44;;;;;;;1.30;1.20;;;23.80;77.10;;;;;;5095883;28;20445;-83
2023/05/29 01:34:11;;;;;;;1.63;1.40;;;23.80;77.00;;;;;;5095821;28;20488;-83
2023/05/29 01:36:38;;;;;;;1.30;1.20;;;23.80;76.80;;;;;;5095664;28;20488;-83
2023/05/29 01:39:06;;;;;;;1.20;1.00;;;23.70;76.70;;;;;;5095746;28;20443;-83
2023/05/29 01:41:34;;;;;;;1.20;1.00;;;23.70;76.70;;;;;;5095606;28;20960;-84
2023/05/29 01:44:04;;;;;;;1.30;1.20;;;23.70;77.50;;;;;;5095744;28;20947;-83
2023/05/29 01:46:31;;;;;;;1.10;0.97;;;23.70;76.50;;;;;;5095557;28;20785;-84
2023/05/29 01:48:58;;;;;;;1.30;1.00;;;23.70;76.50;;;;;;5095618;28;20441;-83
2023/05/29 01:51:25;;;;;;;1.10;1.00;;;23.70;76.50;;;;;;5095659;28;20442;-83
2023/05/29 01:53:52;;;;;;;1.40;1.30;;;23.70;76.40;;;;;;5095107;28;20492;-83
2023/05/29 01:56:20;;;;;;;1.20;0.90;;;23.70;76.50;;;;;;5095456;28;20548;-87
2023/05/29 01:58:48;;;;;;;2.60;1.20;;;23.70;76.50;;;;;;5095372;28;20973;-83
2023/05/29 02:01:16;;;;;;;1.20;0.90;;;23.70;76.50;;;;;;5095240;28;20550;-84
2023/05/29 02:03:43;;;;;;;1.20;1.10;;;23.70;76.40;;;;;;5095475;28;20441;-83
2023/05/29 02:06:10;;;;;;;1.40;1.20;;;23.70;76.50;;;;;;5095180;28;20524;-83
2023/05/29 02:08:37;;;;;;;2.77;1.00;;;23.70;76.50;;;;;;5095266;28;20446;-85
2023/05/29 02:11:04;;;;;;;1.27;1.00;;;23.70;76.40;;;;;;5095039;28;20528;-83
2023/05/29 02:13:32;;;;;;;1.07;0.90;;;23.70;76.40;;;;;;5095047;28;21003;-83
2023/05/29 02:15:59;;;;;;;1.10;0.90;;;23.70;76.30;;;;;;5095145;28;20441;-83
2023/05/29 02:18:27;;;;;;;1.10;0.90;;;23.70;76.10;;;;;;5094933;28;20439;-83
2023/05/29 02:20:54;;;;;;;1.20;1.10;;;23.70;76.20;;;;;;5095036;28;20798;-84
2023/05/29 02:23:21;;;;;;;1.30;1.10;;;23.70;76.40;;;;;;5094760;28;20445;-83
2023/05/29 02:25:48;;;;;;;1.20;1.10;;;23.70;76.30;;;;;;5094827;28;20446;-83
2023/05/29 02:28:15;;;;;;;1.60;1.00;;;23.70;76.30;;;;;;5094680;28;20475;-83
2023/05/29 02:30:43;;;;;;;1.63;1.00;;;23.70;76.40;;;;;;5094828;28;20525;-84
2023/05/29 02:33:10;;;;;;;1.60;0.93;;;23.60;76.10;;;;;;5094610;28;20443;-83
2023/05/29 02:35:38;;;;;;;1.40;1.00;;;23.60;76.10;;;;;;5094399;28;20847;-83
2023/05/29 02:38:05;;;;;;;1.20;1.00;;;23.60;76.10;;;;;;5094556;28;20554;-83
2023/05/29 02:40:32;;;;;;;1.30;1.00;;;23.70;76.20;;;;;;5094515;28;20441;-83
2023/05/29 02:42:59;;;;;;;3.83;1.03;;;23.60;76.30;;;;;;5094567;28;20468;-84
2023/05/29 02:45:26;;;;;;;1.13;1.03;;;23.60;76.10;;;;;;5094488;28;20531;-83
2023/05/29 02:47:52;;;;;;;1.30;1.10;;;23.60;76.20;;;;;;5094418;28;20436;-83
2023/05/29 02:50:19;;;;;;;1.40;1.30;;;23.60;75.80;;;;;;5094563;28;20928;-83
2023/05/29 02:52:47;;;;;;;1.10;0.90;;;23.60;76.10;;;;;;5094406;28;20437;-84
2023/05/29 02:55:15;;;;;;;1.20;0.97;;;23.60;76.00;;;;;;5094233;28;20479;-83
2023/05/29 02:57:41;;;;;;;1.53;1.30;;;23.60;76.00;;;;;;5094232;28;20453;-83
2023/05/29 03:00:10;;;;;;;1.10;0.97;;;23.60;76.10;;;;;;5094190;28;20437;-83
2023/05/29 03:02:37;;;;;;;1.20;0.90;;;23.60;76.00;;;;;;5094133;28;20487;-83
2023/05/29 03:05:04;;;;;;;1.20;1.00;;;23.60;75.90;;;;;;5094217;28;20445;-84
2023/05/29 03:07:31;;;;;;;1.40;1.17;;;23.60;76.00;;;;;;5094037;28;20881;-83
2023/05/29 03:09:59;;;;;;;1.23;0.93;;;23.60;76.80;;;;;;5094136;28;20926;-83
2023/05/29 03:12:27;;;;;;;1.20;1.07;;;23.60;76.10;;;;;;5093309;28;20531;-83
2023/05/29 03:14:56;;;;;;;1.10;0.90;;;23.60;76.80;;;;;;5093779;28;20576;-83
2023/05/29 03:17:23;;;;;;;1.20;0.93;;;23.60;76.00;;;;;;5093967;28;20443;-83
2023/05/29 03:19:50;;;;;;;1.17;1.00;;;23.60;75.90;;;;;;5093707;28;20527;-83
2023/05/29 03:22:17;;;;;;;1.30;1.07;;;23.60;76.80;;;;;;5093798;28;20436;-83
2023/05/29 03:24:44;;;;;;;1.20;0.90;;;23.60;76.00;;;;;;5093921;28;20455;-83
2023/05/29 03:27:12;;;;;;;1.20;1.10;;;23.60;75.90;;;;;;5093859;28;20519;-83
2023/05/29 03:29:39;;;;;;;1.30;1.10;;;23.60;75.80;;;;;;5093759;28;20436;-83
2023/05/29 03:32:06;;;;;;;1.20;1.00;;;23.60;76.70;;;;;;5093673;28;20468;-83
2023/05/29 03:34:34;;;;;;;1.30;1.20;;;23.50;75.70;;;;;;5093453;28;20472;-83
2023/05/29 03:37:01;;;;;;;1.43;1.13;;;23.50;75.80;;;;;;5093612;28;20453;-83
2023/05/29 03:39:28;;;;;;;1.40;1.13;;;23.60;75.90;;;;;;5093468;28;20488;-83
2023/05/29 03:41:55;;;;;;;1.17;0.80;;;23.60;75.80;;;;;;5093597;28;20614;-83
2023/05/29 03:44:23;;;;;;;1.20;1.00;;;23.50;75.70;;;;;;5093525;28;20532;-83
2023/05/29 03:46:50;;;;;;;1.10;0.90;;;23.50;75.70;;;;;;5093465;28;20477;-83
2023/05/29 03:49:17;;;;;;;1.50;1.20;;;23.50;75.70;;;;;;5093345;28;20436;-83
2023/05/29 03:51:44;;;;;;;1.10;0.90;;;23.50;75.70;;;;;;5093425;28;20516;-83
2023/05/29 03:54:11;;;;;;;1.13;0.97;;;23.50;75.70;;;;;;5093213;28;20852;-83
2023/05/29 03:56:38;;;;;;;1.20;0.90;;;23.50;75.70;;;;;;5093490;28;20839;-83
2023/05/29 03:59:05;;;;;;;1.40;0.83;;;23.50;75.70;;;;;;5093196;28;20526;-83
2023/05/29 04:01:33;;;;;;;1.30;1.13;;;23.50;75.60;;;;;;5093351;28;20485;-83
2023/05/29 04:04:00;;;;;;;1.70;1.10;;;23.50;76.50;;;;;;5093252;28;20516;-83
2023/05/29 04:06:27;;;;;;;1.10;0.90;;;23.50;75.50;;;;;;5093020;28;20560;-83
2023/05/29 04:08:54;;;;;;;1.33;0.90;;;23.50;75.40;;;;;;5093132;28;20444;-83
2023/05/29 04:11:22;;;;;;;1.10;0.90;;;23.50;75.60;;;;;;5092942;28;20447;-83
2023/05/29 04:13:48;;;;;;;1.23;1.07;;;23.50;75.60;;;;;;5093202;28;20921;-83
2023/05/29 04:16:16;;;;;;;1.63;1.00;;;23.50;76.30;;;;;;5093217;28;20836;-83
2023/05/29 04:18:44;;;;;;;1.30;0.93;;;23.50;75.50;;;;;;5093080;28;20437;-83
2023/05/29 04:21:11;;;;;;;1.20;1.00;;;23.50;75.70;;;;;;5093050;28;20531;-83
2023/05/29 04:23:38;;;;;;;1.20;0.97;;;23.40;75.60;;;;;;5093283;28;20450;-83
2023/05/29 04:26:05;;;;;;;1.30;1.00;;;23.50;75.60;;;;;;5097342;28;20466;-83
2023/05/29 04:28:32;;;;;;;1.77;1.00;;;23.50;75.70;;;;;;5097125;28;20523;-83
2023/05/29 04:31:00;;;;;;;2.20;0.97;;;23.50;75.60;;;;;;5097197;28;20520;-83
2023/05/29 04:33:28;;;;;;;1.27;1.00;;;23.40;75.50;;;;;;5097148;28;20455;-83
2023/05/29 04:35:56;;;;;;;1.63;1.00;;;23.50;75.70;;;;;;5096810;28;20571;-83
2023/05/29 04:38:24;;;;;;;1.17;0.90;;;23.50;75.70;;;;;;5096689;28;20457;-83
2023/05/29 04:40:52;;;;;;;1.07;0.87;;;23.50;75.80;;;;;;5096964;28;20809;-83
2023/05/29 04:43:19;;;;;;;1.27;1.00;;;23.50;75.60;;;;;;5096994;28;20484;-83
2023/05/29 04:45:45;;;;;;;1.30;1.00;;;23.40;75.60;;;;;;5096884;28;20433;-83
2023/05/29 04:48:12;;;;;;;1.30;1.03;;;23.40;75.50;;;;;;5096707;28;20444;-84
2023/05/29 04:50:39;;;;;;;1.10;0.90;;;23.40;75.70;;;;;;5096725;28;20521;-83
2023/05/29 04:53:07;;;;;;;1.10;1.00;;;23.40;75.70;;;;;;5097014;28;20465;-87
2023/05/29 04:55:34;;;;;;;1.83;1.00;;;23.40;75.70;;;;;;5096530;28;20577;-83
2023/05/29 04:58:01;;;;;;;2.07;1.00;;;23.50;75.90;;;;;;5096400;28;20797;-83
2023/05/29 05:00:28;;;;;;;1.40;0.90;;;23.40;75.70;;;;;;5096592;28;20526;-83
2023/05/29 05:02:56;;;;;;;1.47;1.20;;;23.40;75.80;;;;;;5096427;28;20842;-83
2023/05/29 05:05:22;;;;;;;1.20;1.00;;;23.40;75.70;;;;;;5096444;28;20447;-83
2023/05/29 05:07:49;;;;;;;1.20;1.10;;;23.40;75.70;;;;;;5096260;28;20556;-83
2023/05/29 05:10:17;;;;;;;1.27;1.00;;;23.50;75.90;;;;;;5096476;28;20941;-83
2023/05/29 05:12:44;;;;;;;1.20;0.97;;;23.50;75.90;;;;;;5096201;28;20554;-83
2023/05/29 05:15:12;;;;;;;1.30;0.80;;;23.40;75.80;;;;;;5096085;28;20471;-83
2023/05/29 05:17:38;;;;;;;1.10;0.80;;;23.40;75.70;;;;;;5096161;28;20448;-83
2023/05/29 05:20:08;;;;;;;1.20;1.00;;;23.40;75.80;;;;;;5096274;28;20477;-84
2023/05/29 05:22:35;;;;;;;1.30;0.90;;;23.50;76.00;;;;;;5096215;28;20526;-83
2023/05/29 05:25:03;;;;;;;1.20;1.10;;;23.40;75.70;;;;;;5096127;28;20470;-83
2023/05/29 05:27:32;;;;;;;1.30;1.10;;;23.40;76.60;;;;;;5096110;28;20780;-83
2023/05/29 05:29:58;;;;;;;1.10;1.00;;;23.40;75.70;;;;;;5095976;28;20531;-84
2023/05/29 05:32:25;;;;;;;1.20;0.90;;;23.50;75.90;;;;;;5095897;28;20532;-83
2023/05/29 05:34:52;;;;;;;1.77;1.00;;;23.50;75.90;;;;;;5095103;28;20477;-83
2023/05/29 05:37:19;;;;;;;1.40;1.00;;;23.50;75.90;;;;;;5095777;28;20463;-83
2023/05/29 05:39:46;;;;;;;1.10;0.90;;;23.40;75.70;;;;;;5095743;28;20441;-83
2023/05/29 05:42:13;;;;;;;1.30;1.17;;;23.50;75.90;;;;;;5095861;28;20465;-83
2023/05/29 05:44:41;;;;;;;1.00;0.70;;;23.40;75.70;;;;;;5095811;28;20829;-83
2023/05/29 05:47:08;;;;;;;1.30;1.00;;;23.50;75.90;;;;;;5095824;28;20529;-83
2023/05/29 05:49:35;;;;;;;1.00;0.80;;;23.50;76.00;;;;;;5095630;28;20442;-83
2023/05/29 05:52:01;;;;;;;1.47;1.00;;;23.50;76.00;;;;;;5095524;28;20444;-83
2023/05/29 05:54:28;;;;;;;1.07;0.83;;;23.40;75.80;;;;;;5095434;28;20528;-83
2023/05/29 05:56:55;;;;;;;1.20;0.87;;;23.50;75.90;;;;;;5095295;28;21089;-83
2023/05/29 05:59:22;;;;;;;1.40;1.23;;;23.50;75.80;;;;;;5095441;28;20474;-83
2023/05/29 06:01:51;;;;;;;1.30;0.90;;;23.50;75.90;;;;;;5095455;28;20433;-84
2023/05/29 06:04:19;;;;;;;1.87;1.00;;;23.50;75.90;;;;;;5095320;28;20431;-83
2023/05/29 06:06:46;;;;;;;1.30;0.90;;;23.50;76.00;;;;;;5095176;28;20455;-84
2023/05/29 06:09:13;;;;;;;1.20;1.10;;;23.50;76.10;;;;;;5095056;28;20441;-83
2023/05/29 06:11:40;;;;;;;1.07;0.93;;;23.50;76.00;;;;;;5094952;28;20490;-83
2023/05/29 06:14:07;;;;;;;1.40;1.00;;;23.50;76.00;;;;;;5095064;28;20530;-83
2023/05/29 06:16:34;;;;;;;1.30;1.00;;;23.50;75.90;;;;;;5094972;28;20521;-83
2023/05/29 06:19:02;;;;;;;1.50;1.07;;;23.50;76.70;;;;;;5094984;28;20521;-87
2023/05/29 06:21:29;;;;;;;1.10;0.90;;;23.50;75.90;;;;;;5094971;28;20439;-83
2023/05/29 06:23:56;;;;;;;1.10;0.80;;;23.50;75.70;;;;;;5095048;28;20445;-83
2023/05/29 06:26:24;;;;;;;2.17;1.07;;;23.50;75.80;;;;;;5094866;28;20438;-83
2023/05/29 06:28:51;;;;;;;2.00;0.80;;;23.50;75.90;;;;;;5094882;28;20504;-83
2023/05/29 06:31:18;;;;;;;1.10;1.00;;;23.50;75.80;;;;;;5094744;28;20441;-84
2023/05/29 06:33:45;;;;;;;1.17;1.03;;;23.50;75.70;;;;;;5094816;28;20974;-83
2023/05/29 06:36:13;;;;;;;1.10;0.87;;;23.50;75.80;;;;;;5094461;28;20487;-83
2023/05/29 06:38:40;;;;;;;1.20;1.00;;;23.50;75.70;;;;;;5094699;28;20523;-84
2023/05/29 06:41:07;;;;;;;1.10;0.90;;;23.50;76.00;;;;;;5094606;28;20463;-83
2023/05/29 06:43:34;;;;;;;1.20;0.93;;;23.50;76.10;;;;;;5094492;28;21001;-83
2023/05/29 06:46:01;;;;;;;1.20;0.90;;;23.50;75.90;;;;;;5094160;28;20451;-83
2023/05/29 06:48:28;;;;;;;1.60;0.93;;;23.60;76.10;;;;;;5093805;28;20493;-83
2023/05/29 06:50:55;;;;;;;1.10;0.90;;;23.50;76.10;;;;;;5094457;28;20441;-83
2023/05/29 06:53:23;;;;;;;1.20;0.83;;;23.60;76.80;;;;;;5094362;28;20949;-85
2023/05/29 06:55:49;;;;;;;1.13;0.90;;;23.50;76.70;;;;;;5094167;28;20559;-85
2023/05/29 06:58:16;;;;;;;1.17;0.77;;;23.60;76.70;;;;;;5094181;28;20930;-83
2023/05/29 07:00:43;;;;;;;1.30;1.00;;;23.50;76.60;;;;;;5094100;28;20435;-83
2023/05/29 07:03:10;;;;;;;2.23;1.10;;;23.60;76.90;;;;;;5094293;28;20531;-83
2023/05/29 07:05:37;;;;;;;1.77;0.90;;;23.60;77.70;;;;;;5094180;28;20467;-83
2023/05/29 07:08:03;;;;;;;1.37;1.07;;;23.60;77.00;;;;;;5093870;28;20467;-83
2023/05/29 07:10:32;;;;;;;1.10;0.73;;;23.60;77.10;;;;;;5093989;28;20515;-83
2023/05/29 07:12:58;;;;;;;1.10;0.70;;;23.60;77.20;;;;;;5093816;28;20472;-83
2023/05/29 07:15:25;;;;;;;1.57;0.93;;;23.60;76.90;;;;;;5093839;28;20805;-83
2023/05/29 07:17:52;;;;;;;1.10;0.90;;;23.60;76.80;;;;;;5093952;28;20797;-83
2023/05/29 07:20:20;;;;;;;1.20;0.90;;;23.60;76.70;;;;;;5094090;28;20435;-83
2023/05/29 07:22:47;;;;;;;1.10;0.90;;;23.60;76.70;;;;;;5093737;28;20451;-83
2023/05/29 07:25:13;;;;;;;1.30;1.00;;;23.60;77.00;;;;;;5093733;28;21021;-83
2023/05/29 07:27:42;;;;;;;1.37;0.90;;;23.60;77.00;;;;;;5093908;28;20531;-83
2023/05/29 07:30:09;;;;;;;1.30;0.93;;;23.60;77.10;;;;;;5093924;28;20486;-83
2023/05/29 07:32:36;;;;;;;1.50;0.90;;;23.70;77.20;;;;;;5093551;28;20530;-83
2023/05/29 07:35:03;;;;;;;1.50;0.90;;;23.70;77.20;;;;;;5093475;28;20469;-84
2023/05/29 07:37:30;;;;;;;1.10;0.80;;;23.70;77.20;;;;;;5093285;28;20816;-84
2023/05/29 07:39:57;;;;;;;1.20;1.00;;;23.70;77.20;;;;;;5093573;28;20442;-83
2023/05/29 07:42:24;;;;;;;1.20;1.00;;;23.70;77.20;;;;;;5093484;28;20463;-83
2023/05/29 07:44:52;;;;;;;1.20;0.90;;;23.70;77.30;;;;;;5093516;28;20446;-84
2023/05/29 07:47:19;;;;;;;2.03;1.00;;;23.70;77.20;;;;;;5075333;28;20451;-83
2023/05/29 07:49:46;;;;;;;1.40;0.80;;;23.70;77.20;;;;;;5093334;28;20443;-84
2023/05/29 07:52:13;;;;;;;1.10;0.80;;;23.70;77.20;;;;;;5093336;28;20532;-83
2023/05/29 07:54:39;;;;;;;1.20;1.00;;;23.70;77.10;;;;;;5093163;28;20463;-83
2023/05/29 07:57:09;;;;;;;1.30;1.00;;;23.70;77.10;;;;;;5093154;28;20835;-84
2023/05/29 07:59:36;;;;;;;1.20;0.80;;;23.70;77.10;;;;;;5093026;28;20750;-83
2023/05/29 08:02:05;;;;;;;1.13;0.80;;;23.70;77.00;;;;;;5093279;28;20785;-84
2023/05/29 08:04:32;;;;;;;1.77;1.10;;;23.70;77.00;;;;;;5093172;28;20443;-83
2023/05/29 08:06:59;;;;;;;1.10;0.80;;;23.70;77.00;;;;;;5093077;28;20452;-83
2023/05/29 08:09:26;;;;;;;1.20;0.90;;;23.80;78.10;;;;;;5093169;28;20467;-83
2023/05/29 08:11:52;;;;;;;1.20;0.93;;;23.80;77.30;;;;;;5092811;28;21067;-83
2023/05/29 08:14:19;;;;;;;1.30;1.03;;;23.80;77.30;;;;;;5093131;28;20435;-83
2023/05/29 08:16:46;;;;;;;1.30;0.90;;;23.80;77.10;;;;;;5092993;28;20583;-83
2023/05/29 08:19:14;;;;;;;1.10;0.90;;;23.80;77.30;;;;;;5092956;28;20531;-83
2023/05/29 08:21:41;;;;;;;1.20;0.90;;;23.80;77.20;;;;;;5093070;28;20528;-83
2023/05/29 08:24:08;;;;;;;2.53;1.10;;;23.90;77.40;;;;;;5092791;28;20481;-84
2023/05/29 08:26:35;;;;;;;1.37;0.90;;;23.90;77.30;;;;;;5092954;28;20527;-83
2023/05/29 08:29:02;;;;;;;1.20;0.80;;;23.90;77.30;;;;;;5092946;28;20440;-83
2023/05/29 08:31:30;;;;;;;1.20;1.00;;;23.90;77.20;;;;;;5093050;28;20441;-83
2023/05/29 08:33:57;;;;;;;1.20;0.93;;;23.90;77.20;;;;;;5092846;28;20462;-83
2023/05/29 08:36:26;;;;;;;1.07;0.70;;;24.00;77.50;;;;;;5092876;28;20876;-83
2023/05/29 08:38:53;;;;;;;1.30;0.80;;;24.00;77.30;;;;;;5092871;28;20783;-84
2023/05/29 08:41:25;;;;;;;1.30;1.00;;;24.00;77.30;;;;;;5092886;28;20471;-83
2023/05/29 08:43:53;;;;;;;1.33;0.80;;;24.10;77.40;;;;;;5092920;28;20519;-84
2023/05/29 08:46:20;;;;;;;1.50;1.10;;;24.10;77.50;;;;;;5092816;28;20453;-83
2023/05/29 08:48:49;;;;;;;1.00;0.80;;;24.10;77.50;;;;;;5092806;28;20437;-83
2023/05/29 08:51:19;;;;;;;1.10;0.73;;;24.20;77.40;;;;;;5092786;28;20433;-84
2023/05/29 08:53:49;;;;;;;1.70;0.97;;;24.20;77.50;;;;;;5092682;28;20518;-83
2023/05/29 08:56:15;;;;;;;1.40;0.73;;;24.20;77.40;;;;;;5092805;28;20473;-84
2023/05/29 08:58:43;;;;;;;1.10;0.70;;;24.20;77.40;;;;;;5092534;28;20443;-84
2023/05/29 09:01:11;;;;;;;1.30;0.90;;;24.20;77.50;;;;;;5092721;28;20478;-84
2023/05/29 09:03:38;;;;;;;2.00;1.07;;;24.20;77.70;;;;;;5092563;28;20485;-84
2023/05/29 09:06:07;;;;;;;1.17;0.80;;;24.20;77.60;;;;;;5092567;28;20457;-84
2023/05/29 09:08:34;;;;;;;1.10;0.70;;;24.30;77.60;;;;;;5092620;28;20477;-84
2023/05/29 09:11:02;;;;;;;1.20;0.90;;;24.30;77.60;;;;;;5094924;28;20435;-83
2023/05/29 09:13:29;;;;;;;1.10;0.90;;;24.30;77.50;;;;;;5096526;28;20553;-84
2023/05/29 09:15:58;;;;;;;1.10;0.80;;;24.30;77.60;;;;;;5096065;28;20445;-84
2023/05/29 09:18:29;;;;;;;1.30;0.90;;;24.40;77.70;;;;;;5096222;28;20444;-84
2023/05/29 09:20:56;;;;;;;1.00;0.80;;;24.30;77.60;;;;;;5096237;28;20527;-84
2023/05/29 09:23:22;;;;;;;1.50;0.80;;;24.40;77.80;;;;;;5096048;28;20866;-84
2023/05/29 09:25:54;;;;;;;1.33;0.97;;;24.40;77.80;;;;;;5096419;28;20525;-84
2023/05/29 09:28:25;;;;;;;1.10;1.00;;;24.40;77.90;;;;;;5095916;28;20446;-84
2023/05/29 09:30:52;;;;;;;1.40;0.90;;;24.40;77.90;;;;;;5096115;28;20449;-84
2023/05/29 09:33:19;;;;;;;1.10;0.80;;;24.40;77.80;;;;;;5096015;28;20537;-84
2023/05/29 09:35:47;;;;;;;2.03;0.97;;;24.40;77.90;;;;;;5095761;28;20436;-83
2023/05/29 09:38:16;;;;;;;1.70;1.20;;;24.50;78.10;;;;;;5095691;28;20548;-84
2023/05/29 09:40:45;;;;;;;1.60;0.90;;;24.50;78.30;;;;;;5095746;28;20460;-84
2023/05/29 09:43:14;;;;;;;1.13;0.93;;;24.50;78.00;;;;;;5095638;28;20453;-83
2023/05/29 09:45:43;;;;;;;1.13;0.80;;;24.50;78.10;;;;;;5095669;28;20798;-84
2023/05/29 09:48:14;;;;;;;1.30;0.90;;;24.60;77.90;;;;;;5095507;28;20442;-84
2023/05/29 09:50:47;;;;;;;1.43;0.80;;;24.60;77.90;;;;;;5095609;28;20447;-84
2023/05/29 09:53:21;;;;;;;1.10;0.90;;;24.60;78.00;;;;;;5095616;28;20441;-84
2023/05/29 09:55:50;;;;;;;1.20;0.80;;;24.60;78.10;;;;;;5095537;28;20472;-84
2023/05/29 09:58:18;;;;;;;1.10;0.90;;;24.60;78.20;;;;;;5095329;28;20480;-84
2023/05/29 10:00:47;;;;;;;1.30;0.97;;;24.60;78.00;;;;;;5095441;28;20443;-84
2023/05/29 10:03:14;;;;;;;1.10;0.80;;;24.70;79.00;;;;;;5095416;28;20443;-84
2023/05/29 10:05:41;;;;;;;1.60;0.90;;;24.70;78.30;;;;;;5095249;28;20525;-83
2023/05/29 10:08:12;;;;;;;1.20;0.90;;;24.70;78.20;;;;;;5095190;28;20817;-84
2023/05/29 10:10:42;;;;;;;1.10;0.90;;;24.70;78.20;;;;;;5095266;28;20522;-84
2023/05/29 10:13:13;;;;;;;1.60;1.00;;;24.70;78.40;;;;;;5095082;28;20570;-84
2023/05/29 10:15:42;;;;;;;1.73;1.00;;;24.70;78.50;;;;;;5095124;28;20450;-83
2023/05/29 10:18:22;;;;;;;1.20;1.03;;;24.80;78.70;;;;;;5094986;28;20487;-84
2023/05/29 10:20:52;;;;;;;1.30;1.03;;;24.80;78.60;;;;;;5095112;28;20433;-84
2023/05/29 10:23:22;;;;;;;1.20;0.80;;;24.80;78.50;;;;;;5094971;28;20446;-84
2023/05/29 10:25:52;;;;;;;1.00;0.80;;;24.80;78.90;;;;;;5095126;28;20445;-84
2023/05/29 10:28:19;;;;;;;1.30;0.90;;;24.80;79.10;;;;;;5094815;28;20449;-85
2023/05/29 10:30:52;;;;;;;1.50;0.90;;;24.90;79.70;;;;;;5094896;28;20538;-84
2023/05/29 10:33:43;;;;;;;1.40;0.90;;;24.90;80.00;;;;;;5094684;28;20443;-84
2023/05/29 10:36:14;;;;;;;1.20;0.70;;;24.90;80.20;;;;;;5094648;28;20480;-83
2023/05/29 10:38:42;;;;;;;1.07;0.77;;;24.90;81.10;;;;;;5094703;28;20434;-84
2023/05/29 10:41:32;;;;;;;1.50;0.93;;;24.90;82.40;;;;;;5094610;28;20434;-84
2023/05/29 10:44:01;;;;;;;1.10;0.80;;;25.00;81.00;;;;;;5094525;28;20495;-84
2023/05/29 10:47:04;;;;;;;1.77;0.90;;;25.00;80.50;;;;;;5094455;28;20447;-84
2023/05/29 10:49:34;;;;;;;1.40;0.80;;;25.00;80.70;;;;;;5094337;28;21022;-84
2023/05/29 10:52:01;;;;;;;1.30;0.80;;;25.00;80.10;;;;;;5094638;28;20466;-84
2023/05/29 10:54:28;;;;;;;1.47;0.80;;;25.00;79.80;;;;;;5094283;28;20443;-84
2023/05/29 10:56:57;;;;;;;1.67;0.97;;;25.00;79.70;;;;;;5094303;28;20485;-84
2023/05/29 10:59:27;;;;;;;1.10;0.80;;;25.00;80.00;;;;;;5094200;28;20835;-84
2023/05/29 11:01:54;;;;;;;1.20;0.90;;;25.00;79.80;;;;;;5094323;28;20450;-84
2023/05/29 11:04:32;;;;;;;1.10;0.70;;;25.00;79.70;;;;;;5094329;28;20960;-84
2023/05/29 11:07:08;;;;;;;1.10;0.80;;;25.10;80.20;;;;;;5094054;28;20466;-84
2023/05/29 11:09:37;;;;;;;1.20;0.90;;;25.10;79.80;;;;;;5076163;28;20467;-84
2023/05/29 11:12:33;;;;;;;1.20;0.90;;;25.10;79.80;;;;;;5093855;28;20826;-84
2023/05/29 11:15:04;;;;;;;1.63;0.90;;;25.10;79.60;;;;;;5094067;28;20782;-84
2023/05/29 11:17:46;;;;;;;1.30;1.00;;;25.10;79.60;;;;;;5093757;28;20993;-84
2023/05/29 11:20:36;;;;;;;1.20;0.80;;;25.10;79.50;;;;;;5093866;28;20528;-84
2023/05/29 11:23:08;;;;;;;1.47;0.80;;;25.20;79.50;;;;;;5093930;28;20460;-84
2023/05/29 11:25:37;;;;;;;1.23;0.80;;;25.10;79.60;;;;;;5093931;28;20438;-84
2023/05/29 11:28:08;;;;;;;1.40;1.10;;;25.20;80.40;;;;;;5094115;28;20446;-84
2023/05/29 11:30:45;;;;;;;1.70;0.93;;;25.10;79.50;;;;;;5093796;28;20442;-84
2023/05/29 11:33:23;;;;;;;1.30;0.90;;;25.20;79.50;;;;;;5093065;28;20533;-84
2023/05/29 11:35:56;;;;;;;1.23;0.90;;;25.20;79.50;;;;;;5093639;28;20482;-84
2023/05/29 11:38:24;;;;;;;1.20;0.80;;;25.20;79.50;;;;;;5093532;28;20484;-84
2023/05/29 11:40:51;;;;;;;1.80;0.97;;;25.20;79.50;;;;;;5093566;28;20436;-84
2023/05/29 11:43:18;;;;;;;1.30;0.83;;;25.20;79.70;;;;;;5093705;28;20438;-83
2023/05/29 11:45:45;;;;;;;1.20;0.70;;;25.20;79.80;;;;;;5093425;28;20445;-84
2023/05/29 11:48:11;;;;;;;1.20;0.80;;;25.20;79.60;;;;;;5093421;28;20447;-84
2023/05/29 11:50:38;;;;;;;1.33;1.00;;;25.20;79.60;;;;;;5093402;28;20543;-84
2023/05/29 11:53:07;;;;;;;1.67;0.90;;;25.20;79.70;;;;;;5093350;28;20473;-83
2023/05/29 11:55:35;;;;;;;1.10;0.80;;;25.20;80.10;;;;;;5093199;28;20860;-84
2023/05/29 11:58:03;;;;;;;1.20;1.00;;;25.20;80.10;;;;;;5093289;28;20490;-84
2023/05/29 12:00:32;;;;;;;2.20;0.97;;;25.20;79.80;;;;;;5093218;28;21019;-84
2023/05/29 12:03:03;;;;;;;1.30;0.97;;;25.20;79.60;;;;;;5093094;28;20493;-84
2023/05/29 12:05:30;;;;;;;1.53;1.00;;;25.20;79.50;;;;;;5093276;28;20453;-84
2023/05/29 12:07:57;;;;;;;1.10;0.93;;;25.20;79.60;;;;;;5093045;28;20454;-84
2023/05/29 12:10:24;;;;;;;2.10;0.87;;;25.20;79.80;;;;;;5093192;28;20457;-84
2023/05/29 12:12:54;;;;;;;1.43;0.93;;;25.20;79.50;;;;;;5093170;28;20471;-84
2023/05/29 12:15:21;;;;;;;1.30;1.00;;;25.20;79.70;;;;;;5093041;28;20495;-84
2023/05/29 12:17:49;;;;;;;1.40;0.90;;;25.30;79.50;;;;;;5093092;28;20487;-84
2023/05/29 12:20:17;;;;;;;1.17;1.07;;;25.20;79.50;;;;;;5092874;28;20444;-84
2023/05/29 12:22:45;;;;;;;1.60;1.10;;;25.20;79.50;;;;;;5092957;28;20960;-84
2023/05/29 12:25:13;;;;;;;1.20;0.90;;;25.30;79.60;;;;;;5093061;28;20438;-84
2023/05/29 12:27:46;;;;;;;1.20;0.80;;;25.30;79.50;;;;;;5092985;28;20528;-84
2023/05/29 12:30:15;;;;;;;1.20;0.93;;;25.30;79.50;;;;;;5093188;28;20434;-84
2023/05/29 12:32:45;;;;;;;1.93;1.00;;;25.20;79.50;;;;;;5093033;28;20441;-84
2023/05/29 12:35:17;;;;;;;1.30;0.90;;;25.30;79.80;;;;;;5092709;28;20493;-84
2023/05/29 12:37:46;;;;;;;1.10;0.80;;;25.30;79.90;;;;;;5092599;28;20923;-84
2023/05/29 12:40:16;;;;;;;1.07;0.80;;;25.30;79.90;;;;;;5093181;28;20449;-84
2023/05/29 12:42:43;;;;;;;1.30;1.00;;;25.30;79.90;;;;;;5092842;28;20439;-84
2023/05/29 12:45:11;;;;;;;1.40;0.90;;;25.30;79.70;;;;;;5094040;28;20438;-84
2023/05/29 12:47:46;;;;;;;1.10;0.70;;;25.30;79.70;;;;;;5096792;28;20533;-86
2023/05/29 12:50:24;;;;;;;1.37;0.80;;;25.30;79.50;;;;;;5096715;28;20485;-84
2023/05/29 12:52:59;;;;;;;1.20;0.80;;;25.30;79.50;;;;;;5096714;28;20435;-84
2023/05/29 12:55:26;;;;;;;1.20;0.90;;;25.30;79.60;;;;;;5096699;28;20437;-84